Atwater, California
Current Conditions -  °F | °C
As of 9:45 AM on Friday 31 Oct 2014 (Local Time) from KMER Reporting Station
Clear Clear  
Wind Chill: 66°   Ceiling: Unl
Heat Index: 66°   Visibility: 10mi
Dew Point: 55°   Wind: 5mph
Humidity: 68%   Direction: 210°SSW
Pressure: 29.9"   Gusts: NA
Location:  37.35°N, 120.6°W
Report Text: KMER 311645Z 21004KT 10SM SKC 19/13 A2990 RMK VIS SE 5
Loading
Personal Weather Stations






























Interactive Weather Map
Tropical Storm Tracking
New forecast layout! Learn more

10-Day Weather Forecast

Advertisements
Track Severe Weather on mobile